Morgan, PA (15064)

6:41 PM EDT on August 24, 2016 (GMT -0400)
APRSWXNET | | Change Station

Elev 1180 ft 40.36 °N, 80.17 °W | Updated 24 minutes ago

Mostly Cloudy
Mostly Cloudy
83 °F
Feels Like 86 °F
N
0
Wind Variable Wind from WSW
Gusts 0.0 mph

Today
High -- | Low -- °F
--% Chance of Precip.
Yesterday
High -- | Low -- °F
Precip. -- in
Pressure 30.14 in
Visibility 10.0 miles
Clouds Few 6500 ft
Few 15000 ft
Mostly Cloudy 25000 ft
Heat Index 86 °F
Dew Point 69 °F
Humidity 62%
Rainfall in
Snow Depth Not available.
6:40 AM 8:04 PM
Waning Gibbous, 52% visible
METAR KPIT 242151Z 22010G16KT 10SM FEW065 FEW150 BKN250 29/15 A3014 RMK AO2 SLP204 T02890150
Pressure 30.14 in
Visibility 10.0 miles
Clouds Few 6500 ft
Few 15000 ft
Mostly Cloudy 25000 ft
Heat Index 86 °F
Dew Point 69 °F
Humidity 62%
Rainfall in
Snow Depth Not available.
6:40 AM 8:04 PM
Waning Gibbous, 52% visible
METAR KPIT 242151Z 22010G16KT 10SM FEW065 FEW150 BKN250 29/15 A3014 RMK AO2 SLP204 T02890150

10-Day Weather Forecast

Almanac

Astronomy

Aug. 24, 2016 Rise Set
Actual Time
Civil Twilight
Nautical Twilight
Astronomical Twilight
Moon
Length of Visible Light
Length of Day
Tomorrow will be .
, % of the Moon is Illuminated

Today's Extremes

State Highs State Lows

Community

WunderPhotos

Upload Photos

1,934,728 photos uploaded!

WunderBlog® & News

Nearby

Air Quality

  Air Quality AQ Index Pollutant
Not available.

Snow Depth

Station Depth Elevation

Earthquake Activity

City Distance Mag. Time & Date
Minimum magnitude displayed is 2.5.

Coastal Water Temperatures

Place Temperature

Stations

Nearby Weather Stations

Station Location Temp. Windchill Dew Point Humidity Wind Precip. Elev Updated Type
                   

Watches & Warnings

There are currently no watches in effect.